Flight Track Log - Related Links

Times and Time Zones

All times are in EDT time to prevent confusion due to time zone crossing. See the N337WR flight status page for this flight to view local times or setup timezone preferences in your user account.

Time Position Orientation Groundspeed Altitude Reporting Facility
EDT Latitude Longitude Course Direction KTS MPH feet Rate Location/Type
Sun 02:32:29 PM 39.3014 -106.9683 288° West 221 254 13,200  Level Denver Center
Sun 02:33:31 PM 39.3250 -107.0600 288° West 261 300 14,900 1,839 Climbing Denver Center
Sun 02:34:33 PM 39.2875 -107.1314 236° Southwest 285 328 17,000 1,161 Climbing Denver Center
Sun 02:35:35 PM 39.1944 -107.0950 163° South 347 399 17,300 1,113 Climbing Denver Center
Sun 02:36:37 PM 39.0792 -107.0858 176° South 355 409 19,300 1,742 Climbing Denver Center
Sun 02:37:39 PM 38.9961 -107.0806 177° South 363 418 20,900 1,935 Climbing Denver Center
Sun 02:38:41 PM 38.8647 -107.0606 173° South 382 440 23,300 2,081 Climbing Denver Center
Sun 02:39:43 PM 38.7725 -106.9839 147° Southeast 402 463 25,200 1,790 Climbing Denver Center
Sun 02:40:45 PM 38.6981 -106.8700 130° Southeast 412 474 27,000 1,710 Climbing Denver Center
Sun 02:42:49 PM 38.5483 -106.6433 130° Southeast 416 479 30,500 1,572 Climbing Denver Center
Sun 02:43:52 PM 38.4731 -106.5281 130° Southeast 418 481 31,900 1,488 Climbing Denver Center
Sun 02:44:54 PM 38.3833 -106.3947 131° Southeast 415 478 33,600 1,161 Climbing Denver Center
Sun 02:45:56 PM 38.3078 -106.2839 131° Southeast 414 476 34,300 677 Climbing Denver Center
Sun 02:46:58 PM 38.2314 -106.1697 130° Southeast 421 484 35,000 919 Climbing Denver Center
Sun 02:48:00 PM 38.1472 -106.0411 130° Southeast 425 489 36,200 919 Climbing Denver Center
Sun 02:49:02 PM 38.0733 -105.9353 132° Southeast 422 486 36,900 387 Climbing Denver Center
Sun 02:50:04 PM 37.9889 -105.8094 130° Southeast 418 481 37,000 48 Climbing Denver Center
Sun 02:51:06 PM 37.9111 -105.6956 131° Southeast 435 501 37,000  Level Denver Center
Sun 02:52:08 PM 37.8172 -105.5583 131° Southeast 459 528 37,000  Level Denver Center
Sun 02:53:10 PM 37.7358 -105.4397 131° Southeast 466 536 37,000 48 Level Denver Center
Sun 02:54:12 PM 37.6389 -105.3011 131° Southeast 471 542 37,100 384 Climbing Denver Center
Sun 02:55:15 PM 37.5561 -105.1839 132° Southeast 469 540 37,800 576 Climbing Denver Center
Sun 02:56:17 PM 37.4789 -105.0681 130° Southeast 458 527 38,300 581 Climbing Denver Center
Sun 02:57:19 PM 37.3867 -104.9381 132° Southeast 448 516 39,000 339 Climbing Denver Center
Sun 02:58:21 PM 37.3089 -104.8264 131° Southeast 445 512 39,000  Level Denver Center
Sun 02:59:23 PM 37.2153 -104.6944 132° Southeast 450 518 39,000  Level Denver Center
Sun 03:00:25 PM 37.1347 -104.5789 131° Southeast 458 527 39,000  Level Denver Center
Sun 03:01:27 PM 37.0428 -104.4500 132° Southeast 450 518 39,000  Level Denver Center
Sun 03:02:29 PM 36.9642 -104.3403 132° Southeast 449 517 39,000  Level Denver Center
Sun 03:03:31 PM 36.8714 -104.2111 132° Southeast 448 516 39,000  Level Denver Center
Sun 03:04:33 PM 36.7917 -104.0981 131° Southeast 449 517 39,000  Level Denver Center
Sun 03:05:35 PM 36.6994 -103.9697 132° Southeast 448 516 39,000  Level Denver Center
Sun 03:06:37 PM 36.6189 -103.8586 132° Southeast 448 516 39,000  Level Denver Center
Sun 03:08:08 PM 36.4875 -103.6806 133° Southeast 456 525 39,000  Level Albuquerque Center
Sun 03:09:10 PM 36.4025 -103.5639 132° Southeast 455 524 39,000  Level Albuquerque Center
Sun 03:10:12 PM 36.3169 -103.4461 132° Southeast 455 524 39,000  Level Albuquerque Center
Sun 03:13:19 PM 36.0433 -103.0753 133° Southeast 456 525 39,000  Level Albuquerque Center
Sun 03:14:21 PM 35.9594 -102.9592 132° Southeast 452 520 39,000  Level Albuquerque Center
Sun 03:15:23 PM 35.8703 -102.8397 133° Southeast 451 519 39,000  Level Albuquerque Center
Sun 03:17:27 PM 35.7014 -102.6153 133° Southeast 450 518 39,000  Level Albuquerque Center
Sun 03:18:29 PM 35.6167 -102.5025 133° Southeast 450 518 39,000  Level Albuquerque Center
Sun 03:19:31 PM 35.5150 -102.3669 133° Southeast 450 518 39,000  Level Albuquerque Center
Sun 03:20:33 PM 35.4297 -102.2553 133° Southeast 450 518 39,000  Level Albuquerque Center
Sun 03:21:35 PM 35.3433 -102.1433 133° Southeast 450 518 39,000  Level Albuquerque Center
Sun 03:23:40 PM 35.1681 -101.9133 133° Southeast 451 519 39,000  Level Albuquerque Center
Sun 03:24:42 PM 35.0808 -101.8008 133° Southeast 452 520 39,000  Level Albuquerque Center
Sun 03:25:44 PM 34.9964 -101.6867 132° Southeast 452 520 39,000  Level Albuquerque Center
Sun 03:27:55 PM 34.7992 -101.4347 134° Southeast 453 521 39,000  Level Fort Worth Center
Sun 03:28:50 PM 34.7136 -101.3236 133° Southeast 452 520 39,000  Level Albuquerque Center
Sun 03:29:52 PM 34.6286 -101.2139 133° Southeast 451 519 39,000  Level Albuquerque Center
Sun 03:30:54 PM 34.5419 -101.1044 134° Southeast 451 519 39,000  Level Albuquerque Center
Sun 03:31:57 PM 34.4567 -100.9947 133° Southeast 451 519 39,000  Level Albuquerque Center
Sun 03:32:59 PM 34.3703 -100.8867 134° Southeast 451 519 39,000  Level Albuquerque Center
Sun 03:34:01 PM 34.2842 -100.7772 134° Southeast 450 518 39,000  Level Albuquerque Center
Sun 03:35:03 PM 34.1819 -100.6478 134° Southeast 449 517 39,000  Level Albuquerque Center
Sun 03:36:05 PM 34.0961 -100.5411 134° Southeast 448 516 39,000  Level Albuquerque Center
Sun 03:37:14 PM 34.0000 -100.4233 135° Southeast 445 512 39,000  Level Fort Worth Center
Sun 03:38:16 PM 33.9158 -100.3164 133° Southeast 444 511 39,000  Level Fort Worth Center
Sun 03:39:19 PM 33.8294 -100.2128 135° Southeast 442 509 39,000  Level Fort Worth Center
Sun 03:40:21 PM 33.7458 -100.1064 133° Southeast 441 507 39,000  Level Fort Worth Center
Sun 03:41:23 PM 33.6442 -99.9814 134° Southeast 439 505 39,000  Level Fort Worth Center
Sun 03:42:25 PM 33.5592 -99.8761 134° Southeast 439 505 39,000  Level Fort Worth Center
Sun 03:43:27 PM 33.4736 -99.7708 134° Southeast 439 505 39,000  Level Fort Worth Center
Sun 03:44:29 PM 33.3903 -99.6658 134° Southeast 436 502 39,000  Level Fort Worth Center
Sun 03:45:31 PM 33.3083 -99.5547 131° Southeast 440 506 39,000  Level Fort Worth Center
Sun 03:46:33 PM 33.2283 -99.4392 130° Southeast 446 513 39,000  Level Fort Worth Center
Sun 03:47:35 PM 33.1486 -99.3253 130° Southeast 446 513 39,000  Level Fort Worth Center
Sun 03:48:37 PM 33.0675 -99.2114 130° Southeast 446 513 39,000  Level Fort Worth Center
Sun 03:49:39 PM 32.9714 -99.0750 130° Southeast 446 513 39,000  Level Fort Worth Center
Sun 03:50:42 PM 32.8919 -98.9625 130° Southeast 445 512 39,000  Level Fort Worth Center
Sun 03:51:44 PM 32.8122 -98.8503 130° Southeast 444 511 39,000  Level Fort Worth Center
Sun 03:52:46 PM 32.7319 -98.7389 131° Southeast 443 510 39,000  Level Fort Worth Center
Sun 03:53:48 PM 32.6519 -98.6272 130° Southeast 443 510 39,000  Level Fort Worth Center
Sun 03:54:50 PM 32.5731 -98.5158 130° Southeast 442 509 39,000  Level Fort Worth Center
Sun 03:55:52 PM 32.4758 -98.3828 131° Southeast 442 509 39,000  Level Fort Worth Center
Sun 03:56:54 PM 32.3972 -98.2733 130° Southeast 441 507 39,000  Level Fort Worth Center
Sun 03:57:56 PM 32.3169 -98.1628 131° Southeast 441 507 39,000  Level Fort Worth Center
Sun 03:58:58 PM 32.2369 -98.0514 130° Southeast 443 510 39,000 -48 Level Fort Worth Center
Sun 04:00:00 PM 32.1564 -97.9414 131° Southeast 445 512 38,900 -387 Descending Fort Worth Center
Sun 04:01:02 PM 32.0756 -97.8289 130° Southeast 448 516 38,200 -864 Descending Fort Worth Center
Sun 04:02:05 PM 31.9711 -97.6869 131° Southeast 478 550 37,100 -1,008 Descending Fort Worth Center
Sun 04:03:07 PM 31.8831 -97.5689 131° Southeast 482 555 36,100 -968 Descending Fort Worth Center
Sun 04:04:09 PM 31.7911 -97.4442 131° Southeast 493 567 35,100 -919 Descending Fort Worth Center
Sun 04:05:11 PM 31.6983 -97.3169 131° Southeast 503 579 34,200 -532 Descending Fort Worth Center
Sun 04:06:13 PM 31.5969 -97.2142 139° Southeast 480 552 34,000 -871 Descending Fort Worth Center
Sun 04:07:15 PM 31.4961 -97.1347 146° Southeast 436 502 32,400 -2,516 Descending Fort Worth Center
Sun 04:08:17 PM 31.3992 -97.0572 146° Southeast 422 486 28,800 -2,613 Descending Fort Worth Center
Sun 04:09:19 PM 31.2903 -96.9692 145° Southeast 404 465 27,000 -1,210 Descending Fort Worth Center
Sun 04:10:21 PM 31.1956 -96.8978 147° Southeast 401 461 26,300 -968 Descending Fort Worth Center
Sun 04:11:23 PM 31.0969 -96.8317 150° Southeast 400 460 25,000 -1,355 Descending Fort Worth Center
Sun 04:12:25 PM 30.9964 -96.7644 150° Southeast 407 468 23,500 -1,452 Descending Fort Worth Center
Sun 04:13:27 PM 30.9019 -96.7011 150° Southeast 390 449 22,000 -1,452 Descending Fort Worth Center
Sun 04:14:29 PM 30.8142 -96.6417 150° Southeast 364 419 20,500 -1,392 Descending Fort Worth Center
Sun 04:15:32 PM 30.7300 -96.5858 150° Southeast 350 403 19,100 -1,248 Descending Fort Worth Center
Sun 04:16:34 PM 30.6500 -96.5328 150° Southeast 335 386 17,900 -1,355 Descending Fort Worth Center
Sun 04:17:36 PM 30.5736 -96.4792 149° Southeast 325 374 16,300 -1,645 Descending Fort Worth Center
Sun 04:18:38 PM 30.4953 -96.4314 152° Southeast 318 366 14,500 -1,887 Descending Fort Worth Center
Sun 04:19:40 PM 30.4108 -96.3739 150° Southeast 304 350 12,400 -1,645 Descending Fort Worth Center
Sun 04:20:42 PM 30.3372 -96.3244 150° Southeast 302 348 11,100 -1,161 Descending Fort Worth Center
Sun 04:21:44 PM 30.2686 -96.2844 153° Southeast 285 328 10,000 -1,306 Descending Fort Worth Center
Sun 04:22:46 PM 30.1956 -96.2617 165° South 270 311 8,400 -1,606 Descending Fort Worth Center
Sun 04:24:06 PM 30.0983 -96.2250 162° South 254 292 6,200 -1,447 Descending Houston Center
Sun 04:25:07 PM 30.0308 -96.1964 160° South 259 298 5,000 -1,258 Descending Houston Center
Sun 04:25:08 PM 30.0289 -96.1956 160° South 258 297 4,900 -95 Descending Houston Center
Sun 04:26:10 PM 29.9633 -96.1572 153° Southeast 261 300 4,900 91 Level Houston Center
Sun 04:26:14 PM 29.9578 -96.1539 153° Southeast 263 303 5,000  Climbing Houston Center
Sun 04:27:09 PM 29.9000 -96.1147 150° Southeast 273 314 4,900 -102 Descending Houston Center
Sun 04:27:13 PM 29.8992 -96.1128 116° Southeast 264 304 4,900 97 Level Houston Center
Sun 04:28:11 PM 29.8289 -96.0697 152° Southeast 271 312 5,000  Climbing Houston Center
Sun 04:28:15 PM 29.8325 -96.0692 North 269 310 4,900  Descending Houston Center
Sun 04:29:12 PM 29.7664 -96.0264 151° Southeast 264 304 5,000  Climbing Houston Center
Sun 04:29:17 PM 29.7700 -96.0264 360° North 268 308 4,900 -1,065 Descending Houston Center
Sun 04:30:14 PM 29.7039 -95.9831 150° Southeast 263 303 3,900 -871 Descending Houston Center
Sun 04:30:19 PM 29.7039 -95.9831 150° Southeast 267 307 4,000 -885 Climbing Houston Center
Sun 04:31:15 PM 29.6331 -95.9406 152° Southeast 265 305 3,000 -968 Descending Houston Center
Sun 04:31:21 PM 29.6386 -95.9439 332° Northwest 267 307 3,000  Level Houston Center
Sun 04:32:16 PM 29.5878 -95.8786 132° Southeast 254 292 3,000 -97 Level Houston Center
Sun 04:32:23 PM 29.5844 -95.8711 117° Southeast 253 291 2,900 -982 Descending Houston Center
Sun 04:33:11 PM 29.5475 -95.8256 133° Southeast 247 284 2,100 -871 Descending Houston Center
Sun 04:33:25 PM 29.5408 -95.8131 122° Southeast 247 284 2,000 -90 Descending Houston Center
Sun 04:34:18 PM 29.5089 -95.7700 130° Southeast 182 209 2,000  Level Houston Center
Sun 04:34:28 PM 29.5075 -95.7667 116° Southeast 202 232 2,000 -194 Level Houston Center
Sun 04:35:20 PM 29.4753 -95.7211 129° Southeast 193 222 1,800 -194 Descending Houston Center
Sun 04:35:30 PM 29.4739 -95.7194 134° Southeast 192 221 1,800  Level Houston Center
Sun 04:36:21 PM 29.4514 -95.6664 116° Southeast 191 220 1,800 -97 Level Houston Center
Sun 04:36:32 PM 29.4528 -95.6658 19° North 188 216 1,700  Descending Houston Center
Sun 04:37:22 PM 29.4719 -95.6400 50° Northeast 159 183 1,800 97 Climbing Houston Center
Sun 04:37:34 PM 29.4828 -95.6425 349° North 181 208 1,800  Level Houston Center
Sun 04:38:24 PM 29.5211 -95.6486 352° North 169 194 1,800 -97 Level Houston Center
Sun 04:38:36 PM 29.5289 -95.6483 North 170 196 1,700 -590 Descending Houston Center
Sun 04:39:25 PM 29.5633 -95.6508 356° North 145 167 1,200 -581 Descending Houston Center
Sun 04:39:38 PM 29.5706 -95.6514 356° North 162 186 1,100 -590 Descending Houston Center
Sun 04:40:26 PM 29.5950 -95.6544 354° North 110 127 600 -571 Descending Houston Center
Sun 04:40:41 PM 29.6022 -95.6550 356° North 139 160 500 -234 Descending Houston Center
Sun 04:41:43 PM 29.6342 -95.6569 357° North 134 154 300 -194 Descending Houston Center

Login

Don't have an account? Register now (free) for customized features, flight alerts, and more!